Time;durP1;ratioP1;P1;durP2;ratioP2;P2;SDS_P1;SDS_P2;PMS_P1;PMS_P2;Temp;Humidity;BMP_temperature;BMP_pressure;BME280_temperature;BME280_humidity;BME280_pressure;Samples;Min_cycle;Max_cycle;Signal;HPM_P1;HPM_P2
2021/12/03 00:01:16;;;;;;;19.47;6.27;;;;;;;;;;5054671;28;20039;-81
2021/12/03 00:03:42;;;;;;;21.03;6.70;;;;;;;;;;5054927;28;20055;-82
2021/12/03 00:06:07;;;;;;;14.60;6.27;;;;;;;;;;5054896;28;20380;-82
2021/12/03 00:08:33;;;;;;;24.47;6.77;;;;;;;;;;5075390;28;20028;-83
2021/12/03 00:11:01;;;;;;;19.40;7.70;;;;;;;;;;5058928;28;20028;-82
2021/12/03 00:13:27;;;;;;;23.23;6.90;;;;;;;;;;5058774;28;20495;-82
2021/12/03 00:15:53;;;;;;;22.93;7.30;;;;;;;;;;5058810;28;20407;-81
2021/12/03 00:18:19;;;;;;;23.13;6.70;;;;;;;;;;5058779;28;20025;-81
2021/12/03 00:20:44;;;;;;;28.17;7.93;;;;;;;;;;5058876;28;20021;-82
2021/12/03 00:23:09;;;;;;;23.60;8.17;;;;;;;;;;5058840;28;20056;-81
2021/12/03 00:25:35;;;;;;;20.47;7.13;;;;;;;;;;5076517;28;20439;-81
2021/12/03 00:28:01;;;;;;;24.80;6.97;;;;;;;;;;5058847;28;20025;-81
2021/12/03 00:30:26;;;;;;;21.17;7.07;;;;;;;;;;5058013;28;20035;-82
2021/12/03 00:32:52;;;;;;;14.10;6.33;;;;;;;;;;5076412;28;20055;-81
2021/12/03 00:35:17;;;;;;;16.93;6.67;;;;;;;;;;5058568;28;20496;-81
2021/12/03 00:37:46;;;;;;;16.23;6.83;;;;;;;;;;5058483;28;20030;-81
2021/12/03 00:40:12;;;;;;;19.27;5.90;;;;;;;;;;5058277;28;20025;-82
2021/12/03 00:42:38;;;;;;;15.20;6.07;;;;;;;;;;5058202;28;20468;-81
2021/12/03 00:45:05;;;;;;;17.77;6.53;;;;;;;;;;5058211;28;20436;-81
2021/12/03 00:47:30;;;;;;;12.10;6.17;;;;;;;;;;5058360;28;20085;-82
2021/12/03 00:49:55;;;;;;;14.97;5.87;;;;;;;;;;5057614;28;20040;-82
2021/12/03 00:52:20;;;;;;;13.63;6.60;;;;;;;;;;5058026;28;20095;-81
2021/12/03 00:54:46;;;;;;;27.13;7.37;;;;;;;;;;5058208;28;20062;-82
2021/12/03 00:57:11;;;;;;;20.07;7.60;;;;;;;;;;5058194;28;20021;-81
2021/12/03 00:59:36;;;;;;;20.03;7.77;;;;;;;;;;5058074;28;20487;-81
2021/12/03 01:02:02;;;;;;;20.27;8.13;;;;;;;;;;5058071;28;20032;-81
2021/12/03 01:04:27;;;;;;;20.73;7.80;;;;;;;;;;5070858;28;20070;-81
2021/12/03 01:06:52;;;;;;;17.40;7.23;;;;;;;;;;5037902;28;20029;-81
2021/12/03 01:09:17;;;;;;;21.47;8.33;;;;;;;;;;5037859;28;20071;-81
2021/12/03 01:11:43;;;;;;;14.70;6.73;;;;;;;;;;5037817;28;20060;-81
2021/12/03 01:14:08;;;;;;;17.80;8.20;;;;;;;;;;5042415;28;20017;-82
2021/12/03 01:16:33;;;;;;;17.13;7.20;;;;;;;;;;5057780;28;20032;-82
2021/12/03 01:18:59;;;;;;;14.73;7.17;;;;;;;;;;5057898;28;20080;-81
2021/12/03 01:21:24;;;;;;;18.53;7.70;;;;;;;;;;5057628;28;20460;-82
2021/12/03 01:23:51;;;;;;;15.67;7.57;;;;;;;;;;5057754;28;20476;-81
2021/12/03 01:26:17;;;;;;;18.60;6.73;;;;;;;;;;5075529;28;20032;-81
2021/12/03 01:28:42;;;;;;;18.97;7.70;;;;;;;;;;5075530;28;20460;-81
2021/12/03 01:31:08;;;;;;;19.03;7.60;;;;;;;;;;5057250;28;20048;-81
2021/12/03 01:33:33;;;;;;;14.47;7.43;;;;;;;;;;5057547;28;20020;-81
2021/12/03 01:35:59;;;;;;;15.30;7.33;;;;;;;;;;5057457;28;20034;-83
2021/12/03 01:38:24;;;;;;;17.33;7.70;;;;;;;;;;5057314;28;20059;-84
2021/12/03 01:40:49;;;;;;;15.73;7.27;;;;;;;;;;5074973;28;20024;-83
2021/12/03 01:43:21;;;;;;;22.20;7.83;;;;;;;;;;5057321;28;20021;-83
2021/12/03 01:45:46;;;;;;;15.70;7.75;;;;;;;;;;5049252;28;20029;-84
2021/12/03 01:48:12;;;;;;;19.17;7.60;;;;;;;;;;5037507;28;20123;-83
2021/12/03 01:50:39;;;;;;;16.00;7.23;;;;;;;;;;5037318;28;20044;-83
2021/12/03 01:53:05;;;;;;;14.07;7.40;;;;;;;;;;5037148;28;20059;-84
2021/12/03 01:55:31;;;;;;;16.67;7.53;;;;;;;;;;5037031;28;20028;-83
2021/12/03 01:57:56;;;;;;;20.73;7.77;;;;;;;;;;5041903;28;20024;-83
2021/12/03 02:00:24;;;;;;;18.10;7.17;;;;;;;;;;5056864;28;20491;-84
2021/12/03 02:02:50;;;;;;;21.20;7.53;;;;;;;;;;5057030;28;20151;-84
2021/12/03 02:05:15;;;;;;;18.37;7.33;;;;;;;;;;5056897;28;20051;-82
2021/12/03 02:07:40;;;;;;;22.63;8.03;;;;;;;;;;5074152;28;20499;-84
2021/12/03 02:10:06;;;;;;;18.50;7.07;;;;;;;;;;5074906;28;20070;-83
2021/12/03 02:12:32;;;;;;;23.30;8.90;;;;;;;;;;5056523;28;20024;-84
2021/12/03 02:14:57;;;;;;;20.67;8.10;;;;;;;;;;5056672;28;20070;-84
2021/12/03 02:17:22;;;;;;;19.20;8.00;;;;;;;;;;5056571;28;20020;-84
2021/12/03 02:19:47;;;;;;;23.33;8.77;;;;;;;;;;5056457;28;20491;-84
2021/12/03 02:22:13;;;;;;;18.50;7.63;;;;;;;;;;5056202;28;20020;-84
2021/12/03 02:24:38;;;;;;;19.00;7.57;;;;;;;;;;5056545;28;20070;-84
2021/12/03 02:27:03;;;;;;;18.73;8.83;;;;;;;;;;5056583;28;20024;-84
2021/12/03 02:29:30;;;;;;;17.77;7.93;;;;;;;;;;5056234;28;20052;-83
2021/12/03 02:31:55;;;;;;;21.37;7.77;;;;;;;;;;5055277;28;20029;-84
2021/12/03 02:34:20;;;;;;;16.00;7.47;;;;;;;;;;5055975;28;20019;-84
2021/12/03 02:36:45;;;;;;;20.53;8.13;;;;;;;;;;5056069;28;20466;-84
2021/12/03 02:39:11;;;;;;;19.87;7.90;;;;;;;;;;5056209;28;20089;-83
2021/12/03 02:41:36;;;;;;;18.77;8.97;;;;;;;;;;5056134;28;20426;-84
2021/12/03 02:44:02;;;;;;;21.57;8.03;;;;;;;;;;5073283;28;20407;-84
2021/12/03 02:46:27;;;;;;;15.90;7.67;;;;;;;;;;5073792;28;20016;-84
2021/12/03 02:48:53;;;;;;;20.20;8.77;;;;;;;;;;5055830;28;20020;-84
2021/12/03 02:51:18;;;;;;;20.20;8.93;;;;;;;;;;5055995;28;20048;-84
2021/12/03 02:53:43;;;;;;;28.97;9.90;;;;;;;;;;5055919;28;20086;-84
2021/12/03 02:56:08;;;;;;;27.13;9.23;;;;;;;;;;5055872;28;20086;-83
2021/12/03 02:58:34;;;;;;;26.10;9.63;;;;;;;;;;5055654;28;20819;-83
2021/12/03 03:01:00;;;;;;;23.70;9.87;;;;;;;;;;5055299;28;20023;-84
2021/12/03 03:03:25;;;;;;;25.30;9.40;;;;;;;;;;5055644;28;20539;-83
2021/12/03 03:05:52;;;;;;;27.97;10.40;;;;;;;;;;5074055;28;20074;-83
2021/12/03 03:08:17;;;;;;;24.70;10.10;;;;;;;;;;5073628;28;20059;-83
2021/12/03 03:10:45;;;;;;;22.00;10.20;;;;;;;;;;5055561;28;20062;-84
2021/12/03 03:13:12;;;;;;;27.60;10.77;;;;;;;;;;5055655;28;20056;-84
2021/12/03 03:15:37;;;;;;;23.57;9.00;;;;;;;;;;5055391;28;20055;-84
2021/12/03 03:18:14;;;;;;;30.53;10.67;;;;;;;;;;5055297;28;20410;-84
2021/12/03 03:20:40;;;;;;;25.57;9.60;;;;;;;;;;5055326;28;20103;-84
2021/12/03 03:23:06;;;;;;;19.80;9.23;;;;;;;;;;5073361;28;20503;-84
2021/12/03 03:25:31;;;;;;;20.17;9.00;;;;;;;;;;5055345;28;20017;-84
2021/12/03 03:27:57;;;;;;;23.70;10.00;;;;;;;;;;5055348;28;20112;-84
2021/12/03 03:30:22;;;;;;;25.50;9.30;;;;;;;;;;5055201;28;20021;-84
2021/12/03 03:32:48;;;;;;;23.03;10.43;;;;;;;;;;5055510;28;20074;-84
2021/12/03 03:35:13;;;;;;;28.80;9.90;;;;;;;;;;5055369;28;20031;-83
2021/12/03 03:37:39;;;;;;;28.97;10.57;;;;;;;;;;5055398;28;20018;-84
2021/12/03 03:40:05;;;;;;;37.50;10.13;;;;;;;;;;5054617;28;20524;-84
2021/12/03 03:42:30;;;;;;;26.13;9.47;;;;;;;;;;5054213;28;20050;-84
2021/12/03 03:44:55;;;;;;;27.50;9.73;;;;;;;;;;5055225;28;20032;-84
2021/12/03 03:47:21;;;;;;;26.10;9.33;;;;;;;;;;5055232;28;20013;-84
2021/12/03 03:49:46;;;;;;;25.07;9.40;;;;;;;;;;5055221;28;20035;-84
2021/12/03 03:52:11;;;;;;;29.70;10.43;;;;;;;;;;5055103;28;20052;-84
2021/12/03 03:54:37;;;;;;;32.70;9.77;;;;;;;;;;5055021;28;20456;-84
2021/12/03 03:57:02;;;;;;;28.53;9.27;;;;;;;;;;5054968;28;20099;-84
2021/12/03 03:59:27;;;;;;;32.87;9.10;;;;;;;;;;5073132;28;20024;-84
2021/12/03 04:01:53;;;;;;;24.93;9.33;;;;;;;;;;5055092;28;20476;-84
2021/12/03 04:04:20;;;;;;;26.73;8.70;;;;;;;;;;5054923;28;20384;-84
2021/12/03 04:06:45;;;;;;;23.60;8.47;;;;;;;;;;5054842;28;20024;-84
2021/12/03 04:09:11;;;;;;;24.10;7.93;;;;;;;;;;5054323;28;20037;-84
2021/12/03 04:11:36;;;;;;;26.50;7.30;;;;;;;;;;5054858;28;20119;-84
2021/12/03 04:14:01;;;;;;;16.03;6.03;;;;;;;;;;5054988;28;20051;-84
2021/12/03 04:16:28;;;;;;;27.33;7.33;;;;;;;;;;5054796;28;20020;-84
2021/12/03 04:18:53;;;;;;;19.27;7.17;;;;;;;;;;5054842;28;20021;-84
2021/12/03 04:21:18;;;;;;;19.77;6.20;;;;;;;;;;5054837;28;20372;-85
2021/12/03 04:23:44;;;;;;;18.97;6.17;;;;;;;;;;5054765;28;20024;-84
2021/12/03 04:26:09;;;;;;;22.13;6.07;;;;;;;;;;5073169;28;20500;-84
2021/12/03 04:28:34;;;;;;;22.30;6.30;;;;;;;;;;5072707;28;20832;-84
2021/12/03 04:31:00;;;;;;;17.47;5.80;;;;;;;;;;5054452;28;20015;-84
2021/12/03 04:33:26;;;;;;;21.73;5.83;;;;;;;;;;5054356;28;20056;-84
2021/12/03 04:35:51;;;;;;;21.63;6.17;;;;;;;;;;5054760;28;20464;-84
2021/12/03 04:38:16;;;;;;;22.03;5.80;;;;;;;;;;5072544;28;20069;-84
2021/12/03 04:40:42;;;;;;;18.40;5.07;;;;;;;;;;5054354;28;20479;-84
2021/12/03 04:43:08;;;;;;;20.57;4.67;;;;;;;;;;5054443;28;20115;-84
2021/12/03 04:45:33;;;;;;;21.30;5.07;;;;;;;;;;5054276;28;20121;-84
2021/12/03 04:48:00;;;;;;;15.63;4.67;;;;;;;;;;5054587;28;20024;-83
2021/12/03 04:50:27;;;;;;;22.27;5.47;;;;;;;;;;5054665;28;20024;-84
2021/12/03 04:52:52;;;;;;;21.13;4.50;;;;;;;;;;5054399;28;20032;-83
2021/12/03 04:55:17;;;;;;;25.47;5.20;;;;;;;;;;5058092;28;20464;-83
2021/12/03 04:57:43;;;;;;;17.97;4.70;;;;;;;;;;5058375;28;20379;-84
2021/12/03 05:00:11;;;;;;;16.77;4.43;;;;;;;;;;5057995;28;20020;-84
2021/12/03 05:02:37;;;;;;;23.03;4.50;;;;;;;;;;5057615;28;20119;-84
2021/12/03 05:05:05;;;;;;;20.20;4.67;;;;;;;;;;5057799;28;20060;-84
2021/12/03 05:07:42;;;;;;;15.67;4.20;;;;;;;;;;5058082;28;20112;-84
2021/12/03 05:10:08;;;;;;;23.53;4.90;;;;;;;;;;5058006;28;20027;-83
2021/12/03 05:12:33;;;;;;;17.50;4.27;;;;;;;;;;5075465;28;20104;-84
2021/12/03 05:14:59;;;;;;;21.50;4.00;;;;;;;;;;5057621;28;20020;-84
2021/12/03 05:17:24;;;;;;;23.70;4.57;;;;;;;;;;5057860;28;20353;-84
2021/12/03 05:19:50;;;;;;;22.77;4.20;;;;;;;;;;5057469;28;20021;-84
2021/12/03 05:22:15;;;;;;;26.33;4.63;;;;;;;;;;5058069;28;20032;-84
2021/12/03 05:24:45;;;;;;;15.67;3.83;;;;;;;;;;5057555;28;20085;-84
2021/12/03 05:27:10;;;;;;;14.23;4.10;;;;;;;;;;5057519;28;20055;-84
2021/12/03 05:29:36;;;;;;;21.60;4.30;;;;;;;;;;5056709;28;20391;-84
2021/12/03 05:32:01;;;;;;;24.40;4.27;;;;;;;;;;5057475;28;20025;-84
2021/12/03 05:34:27;;;;;;;15.27;3.80;;;;;;;;;;5057396;28;20035;-84
2021/12/03 05:36:53;;;;;;;20.97;3.80;;;;;;;;;;5057607;28;20138;-84
2021/12/03 05:39:18;;;;;;;20.00;4.83;;;;;;;;;;5057483;28;20023;-84
2021/12/03 05:41:43;;;;;;;19.37;4.83;;;;;;;;;;5057380;28;20365;-84
2021/12/03 05:44:08;;;;;;;17.57;4.63;;;;;;;;;;5057393;28;20052;-84
2021/12/03 05:46:33;;;;;;;16.33;3.37;;;;;;;;;;5057176;28;20035;-84
2021/12/03 05:48:59;;;;;;;20.87;4.30;;;;;;;;;;5057252;28;20460;-84
2021/12/03 05:51:26;;;;;;;21.47;4.00;;;;;;;;;;5057101;28;20435;-84
2021/12/03 05:53:52;;;;;;;20.37;3.83;;;;;;;;;;5057107;28;20043;-84
2021/12/03 05:56:17;;;;;;;19.57;3.67;;;;;;;;;;5057076;28;20061;-84
2021/12/03 05:58:42;;;;;;;14.30;3.07;;;;;;;;;;5056913;28;20728;-84
2021/12/03 06:01:07;;;;;;;17.97;3.57;;;;;;;;;;5056701;28;20357;-84
2021/12/03 06:03:33;;;;;;;25.43;3.73;;;;;;;;;;5057087;28;20035;-84
2021/12/03 06:05:58;;;;;;;18.03;2.97;;;;;;;;;;5055990;28;20020;-84
2021/12/03 06:08:23;;;;;;;24.83;4.20;;;;;;;;;;5056701;28;20028;-84
2021/12/03 06:10:48;;;;;;;24.77;3.87;;;;;;;;;;5056793;28;20024;-84
2021/12/03 06:13:13;;;;;;;24.90;3.97;;;;;;;;;;5056711;28;20110;-84
2021/12/03 06:15:39;;;;;;;22.63;3.60;;;;;;;;;;5056764;28;20017;-84
2021/12/03 06:18:04;;;;;;;24.87;5.10;;;;;;;;;;5056839;28;20742;-84
2021/12/03 06:20:29;;;;;;;17.43;3.27;;;;;;;;;;5056616;28;20510;-84
2021/12/03 06:22:54;;;;;;;15.03;3.10;;;;;;;;;;5056357;28;20052;-84
2021/12/03 06:25:20;;;;;;;20.30;3.50;;;;;;;;;;5056553;28;20031;-84
2021/12/03 06:27:45;;;;;;;15.90;3.57;;;;;;;;;;5056566;28;20078;-84
2021/12/03 06:30:12;;;;;;;18.13;3.60;;;;;;;;;;5056502;28;20016;-83
2021/12/03 06:32:38;;;;;;;15.87;3.43;;;;;;;;;;5056347;28;20119;-84
2021/12/03 06:35:04;;;;;;;16.10;3.10;;;;;;;;;;5056334;28;20052;-84
2021/12/03 06:37:29;;;;;;;20.00;3.83;;;;;;;;;;5056382;28;20048;-84
2021/12/03 06:39:55;;;;;;;14.33;2.63;;;;;;;;;;5056157;28;20062;-84
2021/12/03 06:42:20;;;;;;;17.87;3.77;;;;;;;;;;5056384;28;20024;-84
2021/12/03 06:44:46;;;;;;;20.73;3.60;;;;;;;;;;5056225;28;20032;-84
2021/12/03 06:47:11;;;;;;;14.00;3.67;;;;;;;;;;5073860;28;20073;-84
2021/12/03 06:49:36;;;;;;;16.50;3.10;;;;;;;;;;5056091;28;20021;-84
2021/12/03 06:52:06;;;;;;;26.93;5.33;;;;;;;;;;5056090;28;20063;-84
2021/12/03 06:54:32;;;;;;;19.87;3.90;;;;;;;;;;5055581;28;20024;-84
2021/12/03 06:56:58;;;;;;;27.37;4.83;;;;;;;;;;5055919;28;20016;-84
2021/12/03 06:59:24;;;;;;;29.27;4.20;;;;;;;;;;5055749;28;20027;-84
2021/12/03 07:01:50;;;;;;;20.20;4.33;;;;;;;;;;5055988;28;20110;-84
2021/12/03 07:04:15;;;;;;;29.30;5.10;;;;;;;;;;5073814;28;20076;-84
2021/12/03 07:06:41;;;;;;;23.03;5.33;;;;;;;;;;5054869;28;20435;-84
2021/12/03 07:09:06;;;;;;;22.50;5.17;;;;;;;;;;5055749;28;20123;-84
2021/12/03 07:11:31;;;;;;;13.57;4.37;;;;;;;;;;5055609;28;20490;-84
2021/12/03 07:13:57;;;;;;;13.47;4.80;;;;;;;;;;5055388;28;20025;-84
2021/12/03 07:16:22;;;;;;;25.63;5.90;;;;;;;;;;5054392;28;20024;-84
2021/12/03 07:18:48;;;;;;;23.37;5.53;;;;;;;;;;5053285;28;20035;-84
2021/12/03 07:21:14;;;;;;;21.00;5.77;;;;;;;;;;5054491;28;20023;-84
2021/12/03 07:23:39;;;;;;;26.60;4.93;;;;;;;;;;5054830;28;20028;-84
2021/12/03 07:26:04;;;;;;;26.23;5.60;;;;;;;;;;5055240;28;20028;-84
2021/12/03 07:28:30;;;;;;;22.80;5.43;;;;;;;;;;5073390;28;20020;-84
2021/12/03 07:30:55;;;;;;;20.17;5.27;;;;;;;;;;5054660;28;20035;-84
2021/12/03 07:33:21;;;;;;;20.97;5.10;;;;;;;;;;5069809;28;20027;-84
2021/12/03 07:35:46;;;;;;;21.77;5.40;;;;;;;;;;5093422;28;20024;-84
2021/12/03 07:38:12;;;;;;;22.63;5.07;;;;;;;;;;5075664;28;20486;-84
2021/12/03 07:40:37;;;;;;;29.17;5.23;;;;;;;;;;5080374;28;20107;-84
2021/12/03 07:43:02;;;;;;;17.53;4.87;;;;;;;;;;5053129;28;20482;-84
2021/12/03 07:45:28;;;;;;;22.17;4.60;;;;;;;;;;5046082;28;20028;-84
2021/12/03 07:47:53;;;;;;;20.63;5.60;;;;;;;;;;5055174;28;20112;-85
2021/12/03 07:50:18;;;;;;;21.73;4.37;;;;;;;;;;5057936;28;20028;-85
2021/12/03 07:52:43;;;;;;;16.73;5.03;;;;;;;;;;5071906;28;20028;-84
2021/12/03 07:55:09;;;;;;;19.93;4.70;;;;;;;;;;5054297;28;20024;-84
2021/12/03 07:57:34;;;;;;;16.23;4.67;;;;;;;;;;5059767;28;20345;-84
2021/12/03 07:59:59;;;;;;;11.07;4.23;;;;;;;;;;5054543;28;20024;-85
2021/12/03 08:02:26;;;;;;;15.70;4.63;;;;;;;;;;5071988;28;20618;-84
2021/12/03 08:04:51;;;;;;;17.87;3.63;;;;;;;;;;5053919;28;20032;-84
2021/12/03 08:07:17;;;;;;;14.13;3.93;;;;;;;;;;5054454;28;20037;-85
2021/12/03 08:09:42;;;;;;;15.10;3.40;;;;;;;;;;5066571;28;20368;-84
2021/12/03 08:12:07;;;;;;;13.83;3.00;;;;;;;;;;5054961;28;20024;-84
2021/12/03 08:14:33;;;;;;;13.47;4.07;;;;;;;;;;5054839;28;20016;-84
2021/12/03 08:16:58;;;;;;;18.33;3.60;;;;;;;;;;5057528;28;20012;-85
2021/12/03 08:19:23;;;;;;;18.93;3.77;;;;;;;;;;5064861;28;20031;-84
2021/12/03 08:21:48;;;;;;;14.80;3.87;;;;;;;;;;5055860;28;20046;-84
2021/12/03 08:24:14;;;;;;;8.87;3.17;;;;;;;;;;5065781;28;20495;-84
2021/12/03 08:26:39;;;;;;;13.87;3.37;;;;;;;;;;5088245;28;20498;-85
2021/12/03 08:29:05;;;;;;;16.00;3.40;;;;;;;;;;5056532;28;20024;-83
2021/12/03 08:31:30;;;;;;;14.87;3.37;;;;;;;;;;5076140;28;20024;-85
2021/12/03 08:33:55;;;;;;;10.90;3.13;;;;;;;;;;5076398;28;20029;-84
2021/12/03 08:36:21;;;;;;;15.23;3.93;;;;;;;;;;5058507;28;20517;-84
2021/12/03 08:38:46;;;;;;;12.43;3.63;;;;;;;;;;5076435;28;20013;-84
2021/12/03 08:41:16;;;;;;;13.63;3.57;;;;;;;;;;5076484;28;20122;-84
2021/12/03 08:43:41;;;;;;;15.73;3.47;;;;;;;;;;5058731;28;20077;-84
2021/12/03 08:46:14;;;;;;;17.80;3.97;;;;;;;;;;5058561;28;20062;-85
2021/12/03 08:48:44;;;;;;;17.20;3.63;;;;;;;;;;5058559;28;20021;-84
2021/12/03 08:51:55;;;;;;;20.83;3.60;;;;;;;;;;5058282;28;20097;-85
2021/12/03 08:56:41;;;;;;;11.80;2.90;;;;;;;;;;5076106;28;20095;-84
2021/12/03 08:59:07;;;;;;;13.60;3.60;;;;;;;;;;5058442;28;20074;-84
2021/12/03 09:01:32;;;;;;;9.03;3.07;;;;;;;;;;5057419;28;20086;-85
2021/12/03 09:03:58;;;;;;;10.73;2.27;;;;;;;;;;5057095;28;20021;-84
2021/12/03 09:06:23;;;;;;;14.13;3.90;;;;;;;;;;5054511;28;20028;-84
2021/12/03 09:08:48;;;;;;;15.00;3.70;;;;;;;;;;5057422;28;20033;-85
2021/12/03 09:11:14;;;;;;;9.10;2.97;;;;;;;;;;5056764;28;20047;-83
2021/12/03 09:13:40;;;;;;;11.33;3.73;;;;;;;;;;5059527;28;20019;-85
2021/12/03 09:16:11;;;;;;;17.70;3.17;;;;;;;;;;5054988;28;20020;-84
2021/12/03 09:18:39;;;;;;;18.17;3.87;;;;;;;;;;5057958;28;20027;-85
2021/12/03 09:21:27;;;;;;;13.43;3.63;;;;;;;;;;5057810;28;20748;-85
2021/12/03 09:26:19;;;;;;;12.73;3.87;;;;;;;;;;5075727;28;20483;-85
2021/12/03 09:28:46;;;;;;;15.20;3.90;;;;;;;;;;5057436;28;20016;-85
2021/12/03 09:31:12;;;;;;;23.93;5.37;;;;;;;;;;5057482;28;20025;-85
2021/12/03 09:33:40;;;;;;;16.60;4.37;;;;;;;;;;5057253;28;20482;-84
2021/12/03 09:36:07;;;;;;;15.50;4.40;;;;;;;;;;5057901;28;20070;-84
2021/12/03 09:38:34;;;;;;;21.37;5.20;;;;;;;;;;5056366;28;20016;-85
2021/12/03 09:41:10;;;;;;;21.20;5.13;;;;;;;;;;5059794;28;20012;-84
2021/12/03 09:43:36;;;;;;;15.17;4.70;;;;;;;;;;5047404;28;20032;-84
2021/12/03 09:46:12;;;;;;;15.93;4.70;;;;;;;;;;5057259;28;20107;-84
2021/12/03 09:51:23;;;;;;;21.20;5.70;;;;;;;;;;5074774;28;20113;-85
2021/12/03 09:56:16;;;;;;;27.30;8.47;;;;;;;;;;5068274;28;20024;-84
2021/12/03 10:01:37;;;;;;;25.10;6.00;;;;;;;;;;5043821;28;20120;-84
2021/12/03 10:10:31;;;;;;;19.07;5.87;;;;;;;;;;5075046;28;20032;-84
2021/12/03 10:12:45;;;;;;;17.30;4.47;;;;;;;;;;5059341;28;20476;-84
2021/12/03 10:15:10;;;;;;;14.07;4.33;;;;;;;;;;5072533;28;20027;-84
2021/12/03 10:17:57;;;;;;;18.03;4.80;;;;;;;;;;5047934;28;20031;-84
2021/12/03 10:34:09;;;;;;;18.67;5.00;;;;;;;;;;5089550;28;20023;-84
2021/12/03 10:53:10;;;;;;;18.97;4.10;;;;;;;;;;5065729;28;20490;-84
2021/12/03 11:29:00;;;;;;;11.13;3.67;;;;;;;;;;5012476;28;20109;-84
2021/12/03 11:56:12;;;;;;;13.27;3.87;;;;;;;;;;5071957;28;20460;-84
2021/12/03 12:18:33;;;;;;;7.23;2.70;;;;;;;;;;5061455;28;20094;-82
2021/12/03 13:08:09;;;;;;;8.83;2.30;;;;;;;;;;5057307;28;20025;-82
2021/12/03 13:10:42;;;;;;;6.40;2.37;;;;;;;;;;5075886;28;20032;-82
2021/12/03 13:29:52;;;;;;;5.97;2.30;;;;;;;;;;5076222;28;20074;-83
2021/12/03 13:57:22;;;;;;;10.23;2.40;;;;;;;;;;5067953;28;20031;-83
2021/12/03 14:05:26;;;;;;;6.57;2.20;;;;;;;;;;5073261;28;20807;-83
2021/12/03 14:57:14;;;;;;;3.20;1.10;;;;;;;;;;5074165;28;20040;-83
2021/12/03 14:59:49;;;;;;;4.43;2.37;;;;;;;;;;5056033;28;20020;-83
2021/12/03 15:05:00;;;;;;;7.13;1.87;;;;;;;;;;5074064;28;20074;-83
2021/12/03 15:07:34;;;;;;;4.43;1.67;;;;;;;;;;5055897;28;20036;-83
2021/12/03 15:10:03;;;;;;;3.47;1.30;;;;;;;;;;5056006;28;20036;-83
2021/12/03 15:15:50;;;;;;;4.63;1.53;;;;;;;;;;5080276;28;20044;-83
2021/12/03 15:34:00;;;;;;;5.07;1.70;;;;;;;;;;4972654;28;20034;-83
2021/12/03 15:58:25;;;;;;;2.23;1.50;;;;;;;;;;5073501;28;20029;-83
2021/12/03 16:09:08;;;;;;;3.37;1.30;;;;;;;;;;5064145;28;20033;-84
2021/12/03 16:11:39;;;;;;;2.30;1.33;;;;;;;;;;5055097;28;20464;-83
2021/12/03 16:17:02;;;;;;;3.57;1.70;;;;;;;;;;5073267;28;20016;-84
2021/12/03 16:19:55;;;;;;;3.63;1.60;;;;;;;;;;5055012;28;20486;-84
2021/12/03 16:47:01;;;;;;;1.23;1.10;;;;;;;;;;5072510;28;20415;-83
2021/12/03 16:52:32;;;;;;;2.20;1.50;;;;;;;;;;5032744;28;20030;-83
2021/12/03 16:54:58;;;;;;;2.93;1.77;;;;;;;;;;5054731;28;20062;-83
2021/12/03 16:57:33;;;;;;;2.47;1.77;;;;;;;;;;5058371;28;20465;-83
2021/12/03 17:00:01;;;;;;;2.37;1.70;;;;;;;;;;5076006;28;20108;-84
2021/12/03 17:03:14;;;;;;;1.90;1.30;;;;;;;;;;5057589;28;20491;-84
2021/12/03 17:05:34;;;;;;;4.03;2.30;;;;;;;;;;5069097;28;20580;-84
2021/12/03 17:30:07;;;;;;;2.33;1.30;;;;;;;;;;5075154;28;20032;-81
2021/12/03 17:51:42;;;;;;;1.30;1.00;;;;;;;;;;5071617;28;20020;-81
2021/12/03 17:56:53;;;;;;;1.50;1.10;;;;;;;;;;5064684;28;20396;-81
2021/12/03 17:59:21;;;;;;;1.20;0.90;;;;;;;;;;5057207;28;20039;-81
2021/12/03 18:01:55;;;;;;;1.83;1.10;;;;;;;;;;5067885;28;20475;-81
2021/12/03 18:07:14;;;;;;;2.63;1.30;;;;;;;;;;5074662;28;20796;-83
2021/12/03 18:16:00;;;;;;;2.00;1.10;;;;;;;;;;5074799;28;20028;-84
2021/12/03 18:55:33;;;;;;;1.53;1.10;;;;;;;;;;5066562;28;20480;-84
2021/12/03 18:58:02;;;;;;;3.10;1.60;;;;;;;;;;5050017;28;20056;-84
2021/12/03 19:00:30;;;;;;;3.30;1.70;;;;;;;;;;5055217;28;20051;-83
2021/12/03 19:02:57;;;;;;;3.43;1.43;;;;;;;;;;5054805;28;20035;-85
2021/12/03 19:05:45;;;;;;;4.87;2.23;;;;;;;;;;5052613;28;20021;-85
2021/12/03 19:08:15;;;;;;;4.13;1.83;;;;;;;;;;5055020;28;20530;-85
2021/12/03 19:10:45;;;;;;;3.13;1.27;;;;;;;;;;5055673;28;20074;-84
2021/12/03 19:13:15;;;;;;;6.17;2.77;;;;;;;;;;5055140;28;20024;-85
2021/12/03 19:15:42;;;;;;;6.17;2.97;;;;;;;;;;5055144;28;20484;-85
2021/12/03 19:18:08;;;;;;;2.10;1.40;;;;;;;;;;5055607;28;20024;-85
2021/12/03 19:20:37;;;;;;;1.97;1.43;;;;;;;;;;5055214;28;20020;-85
2021/12/03 19:23:02;;;;;;;2.37;1.60;;;;;;;;;;5053694;28;20016;-86
2021/12/03 19:25:28;;;;;;;2.30;1.53;;;;;;;;;;5054275;28;20094;-85
2021/12/03 19:27:53;;;;;;;2.30;1.30;;;;;;;;;;5055151;28;20024;-85
2021/12/03 19:30:19;;;;;;;3.97;2.30;;;;;;;;;;5054770;28;20017;-85
2021/12/03 19:32:44;;;;;;;3.07;1.33;;;;;;;;;;5054587;28;20032;-85
2021/12/03 19:35:09;;;;;;;2.07;1.20;;;;;;;;;;5054892;28;20190;-82
2021/12/03 19:37:35;;;;;;;1.60;0.80;;;;;;;;;;5055365;28;20099;-83
2021/12/03 19:40:04;;;;;;;2.93;1.37;;;;;;;;;;5055128;28;20031;-83
2021/12/03 19:42:40;;;;;;;2.57;1.47;;;;;;;;;;5055089;28;20112;-85
2021/12/03 19:45:07;;;;;;;1.60;1.10;;;;;;;;;;5055294;28;20020;-84
2021/12/03 19:47:45;;;;;;;2.40;1.30;;;;;;;;;;5072912;28;20031;-85
2021/12/03 19:50:22;;;;;;;3.07;1.50;;;;;;;;;;5055997;28;20031;-85
2021/12/03 19:52:59;;;;;;;1.93;1.33;;;;;;;;;;5055196;28;20039;-83
2021/12/03 19:55:25;;;;;;;2.30;1.23;;;;;;;;;;5073312;28;20388;-83
2021/12/03 19:57:50;;;;;;;3.17;1.23;;;;;;;;;;5054763;28;20020;-83
2021/12/03 20:00:16;;;;;;;7.17;3.70;;;;;;;;;;5054659;28;20027;-82
2021/12/03 20:02:41;;;;;;;12.67;6.03;;;;;;;;;;5054381;28;20032;-82
2021/12/03 20:05:06;;;;;;;3.40;1.80;;;;;;;;;;5055152;28;20029;-85
2021/12/03 20:07:32;;;;;;;2.70;1.70;;;;;;;;;;5072666;28;20020;-85
2021/12/03 20:10:03;;;;;;;3.13;1.70;;;;;;;;;;5065438;28;20128;-85
2021/12/03 20:12:30;;;;;;;2.57;1.43;;;;;;;;;;5074898;28;20028;-85
2021/12/03 20:14:56;;;;;;;2.57;1.37;;;;;;;;;;5092894;28;20024;-85
2021/12/03 20:17:27;;;;;;;2.50;1.70;;;;;;;;;;5066460;28;20511;-85
2021/12/03 20:19:55;;;;;;;2.03;1.57;;;;;;;;;;5054811;28;20024;-84
2021/12/03 20:22:34;;;;;;;2.77;1.73;;;;;;;;;;5053845;28;20032;-85
2021/12/03 20:28:04;;;;;;;3.60;1.53;;;;;;;;;;5032009;28;20107;-84
2021/12/03 20:36:10;;;;;;;3.20;1.90;;;;;;;;;;5076729;28;20388;-84
2021/12/03 20:38:36;;;;;;;2.67;1.30;;;;;;;;;;5058381;28;20042;-84
2021/12/03 20:41:05;;;;;;;2.97;1.43;;;;;;;;;;5058758;28;20025;-84
2021/12/03 20:43:44;;;;;;;2.27;1.30;;;;;;;;;;5058345;28;20028;-82
2021/12/03 20:48:46;;;;;;;1.93;1.07;;;;;;;;;;5075996;28;20400;-84
2021/12/03 20:54:17;;;;;;;3.73;1.17;;;;;;;;;;5076178;28;20059;-84
2021/12/03 20:59:38;;;;;;;2.50;1.30;;;;;;;;;;5076222;28;20027;-82
2021/12/03 21:10:21;;;;;;;3.23;1.60;;;;;;;;;;5080225;28;20073;-84
2021/12/03 21:12:48;;;;;;;2.13;1.35;;;;;;;;;;5058168;28;20043;-84
2021/12/03 21:15:25;;;;;;;2.73;1.67;;;;;;;;;;5057860;28;20226;-84
2021/12/03 21:18:16;;;;;;;2.37;1.10;;;;;;;;;;5075980;28;20099;-84
2021/12/03 21:20:51;;;;;;;4.13;1.50;;;;;;;;;;5057587;28;20454;-84
2021/12/03 21:23:19;;;;;;;4.17;1.67;;;;;;;;;;5057739;28;20028;-84
2021/12/03 21:25:49;;;;;;;1.60;1.10;;;;;;;;;;5057674;28;20028;-84
2021/12/03 21:30:50;;;;;;;1.93;1.10;;;;;;;;;;5075700;28;20036;-84
2021/12/03 21:41:22;;;;;;;3.50;1.40;;;;;;;;;;5075551;28;20020;-85
2021/12/03 21:43:52;;;;;;;1.83;1.20;;;;;;;;;;5057060;28;20025;-85
2021/12/03 21:46:21;;;;;;;2.63;1.43;;;;;;;;;;5057440;28;20020;-84
2021/12/03 21:48:46;;;;;;;2.87;1.40;;;;;;;;;;5057515;28;20099;-84
2021/12/03 21:51:12;;;;;;;5.33;1.70;;;;;;;;;;5075172;28;20016;-84
2021/12/03 21:53:37;;;;;;;2.83;1.30;;;;;;;;;;5066770;28;20024;-84
2021/12/03 21:56:02;;;;;;;2.57;1.40;;;;;;;;;;5077244;28;20378;-85
2021/12/03 21:58:28;;;;;;;5.80;1.57;;;;;;;;;;5077300;28;20137;-84
2021/12/03 22:00:53;;;;;;;4.20;1.80;;;;;;;;;;5062214;28;20349;-84
2021/12/03 22:03:18;;;;;;;2.40;1.10;;;;;;;;;;5057087;28;20021;-84
2021/12/03 22:05:43;;;;;;;6.63;2.20;;;;;;;;;;5056995;28;20031;-84
2021/12/03 22:08:10;;;;;;;5.27;1.80;;;;;;;;;;5056998;28;20056;-84
2021/12/03 22:10:36;;;;;;;1.70;1.00;;;;;;;;;;5056619;28;20029;-84
2021/12/03 22:13:02;;;;;;;5.43;1.50;;;;;;;;;;5074297;28;20044;-82
2021/12/03 22:15:27;;;;;;;2.30;1.10;;;;;;;;;;5074256;28;20531;-82
2021/12/03 22:17:52;;;;;;;2.40;1.50;;;;;;;;;;5056675;28;20020;-82
2021/12/03 22:20:17;;;;;;;2.50;1.30;;;;;;;;;;5071406;28;20104;-84
2021/12/03 22:22:43;;;;;;;3.50;1.50;;;;;;;;;;5036853;28;20425;-84
2021/12/03 22:25:08;;;;;;;4.20;1.20;;;;;;;;;;5036900;28;20024;-84
2021/12/03 22:27:34;;;;;;;2.23;1.13;;;;;;;;;;5036843;28;20044;-85
2021/12/03 22:29:59;;;;;;;2.50;1.20;;;;;;;;;;5054563;28;20373;-84
2021/12/03 22:32:24;;;;;;;4.07;1.60;;;;;;;;;;5054320;28;20028;-84